createdAt,value
2017-09-22T00:02:01.678Z,5.65
2017-09-22T00:04:28.152Z,7.00
2017-09-22T00:06:54.594Z,6.72
2017-09-22T00:09:21.789Z,7.60
2017-09-22T00:11:48.238Z,6.55
2017-09-22T00:14:14.692Z,8.38
2017-09-22T00:16:41.114Z,7.35
2017-09-22T00:19:07.584Z,8.48
2017-09-22T00:21:34.745Z,6.70
2017-09-22T00:24:01.173Z,7.80
2017-09-22T00:26:27.605Z,7.80
2017-09-22T00:28:54.833Z,8.25
2017-09-22T00:31:21.340Z,7.68
2017-09-22T00:33:47.807Z,6.93
2017-09-22T00:36:14.965Z,8.38
2017-09-22T00:38:42.270Z,7.28
2017-09-22T00:41:08.689Z,7.82
2017-09-22T00:43:35.128Z,7.10
2017-09-22T00:46:01.595Z,7.45
2017-09-22T00:48:28.099Z,7.43
2017-09-22T00:50:54.581Z,7.70
2017-09-22T00:53:21.048Z,6.95
2017-09-22T00:55:47.525Z,7.75
2017-09-22T00:58:13.961Z,7.70
2017-09-22T01:00:40.404Z,7.20
2017-09-22T01:03:07.581Z,6.95
2017-09-22T01:05:34.081Z,8.63
2017-09-22T01:08:01.304Z,8.75
2017-09-22T01:10:27.704Z,8.35
2017-09-22T01:12:54.093Z,10.13
2017-09-22T01:15:20.536Z,9.48
2017-09-22T01:17:47.726Z,8.65
2017-09-22T01:20:14.167Z,10.25
2017-09-22T01:22:40.645Z,9.88
2017-09-22T01:25:07.083Z,9.88
2017-09-22T01:27:33.503Z,9.30
2017-09-22T01:29:59.920Z,9.45
2017-09-22T01:32:26.385Z,10.35
2017-09-22T01:34:53.546Z,10.90
2017-09-22T01:37:20.002Z,10.85
2017-09-22T01:39:46.413Z,10.93
2017-09-22T01:42:13.597Z,10.32
2017-09-22T01:44:40.029Z,10.18
2017-09-22T01:47:06.437Z,9.35
2017-09-22T01:49:32.975Z,11.70
2017-09-22T01:51:59.510Z,10.63
2017-09-22T01:54:25.948Z,10.52
2017-09-22T01:56:52.376Z,11.32
2017-09-22T01:59:18.837Z,10.48
2017-09-22T02:01:45.277Z,11.73
2017-09-22T02:04:11.752Z,12.13
2017-09-22T02:06:38.225Z,13.00
2017-09-22T02:09:04.698Z,13.62
2017-09-22T02:11:31.134Z,11.73
2017-09-22T02:13:57.553Z,11.63
2017-09-22T02:16:24.010Z,12.68
2017-09-22T02:18:50.414Z,13.50
2017-09-22T02:21:16.894Z,12.05
2017-09-22T02:23:44.045Z,11.90
2017-09-22T02:26:10.479Z,12.57
2017-09-22T02:28:37.672Z,12.90
2017-09-22T02:31:04.105Z,11.43
2017-09-22T02:33:30.629Z,11.68
2017-09-22T02:35:57.061Z,10.63
2017-09-22T02:38:23.530Z,10.35
2017-09-22T02:40:49.993Z,10.80
2017-09-22T02:43:17.152Z,11.98
2017-09-22T02:45:43.569Z,11.82
2017-09-22T02:48:10.756Z,12.82
2017-09-22T02:50:37.165Z,11.10
2017-09-22T02:53:03.639Z,11.68
2017-09-22T02:55:30.065Z,12.18
2017-09-22T02:57:56.509Z,12.32
2017-09-22T03:00:22.992Z,10.98
2017-09-22T03:02:49.449Z,11.48
2017-09-22T03:05:15.897Z,12.00
2017-09-22T03:07:42.345Z,11.35
2017-09-22T03:10:08.772Z,11.15
2017-09-22T03:12:36.030Z,11.75
2017-09-22T03:15:02.549Z,12.73
2017-09-22T03:17:29.021Z,11.57
2017-09-22T03:19:55.492Z,13.55
2017-09-22T03:22:22.654Z,10.65
2017-09-22T03:24:49.046Z,10.85
2017-09-22T03:27:16.237Z,10.18
2017-09-22T03:29:42.652Z,10.95
2017-09-22T03:32:09.826Z,9.68
2017-09-22T03:34:36.245Z,10.32
2017-09-22T03:37:02.705Z,11.85
2017-09-22T03:39:29.165Z,12.45
2017-09-22T03:41:55.578Z,10.95
2017-09-22T03:44:21.979Z,12.07
2017-09-22T03:46:48.462Z,10.38
2017-09-22T03:49:14.868Z,9.35
2017-09-22T03:51:41.281Z,9.40
2017-09-22T03:54:07.733Z,9.68
2017-09-22T03:56:34.181Z,9.38
2017-09-22T03:59:00.580Z,9.00
2017-09-22T04:01:27.064Z,9.35
2017-09-22T04:03:53.503Z,8.70
2017-09-22T04:06:20.682Z,9.10
2017-09-22T04:08:47.140Z,8.20
2017-09-22T04:11:13.574Z,9.85
2017-09-22T04:13:39.981Z,10.38
2017-09-22T04:16:06.509Z,10.70
2017-09-22T04:18:33.742Z,11.00
2017-09-22T04:21:00.145Z,10.82
2017-09-22T04:23:26.535Z,10.05
2017-09-22T04:25:52.983Z,11.30
2017-09-22T04:28:19.433Z,11.15
2017-09-22T04:30:45.864Z,10.70
2017-09-22T04:33:12.318Z,10.27
2017-09-22T04:35:38.748Z,22.13
2017-09-22T04:38:05.201Z,19.50
2017-09-22T04:40:32.409Z,17.48
2017-09-22T04:42:58.825Z,14.87
2017-09-22T04:45:25.260Z,13.50
2017-09-22T04:47:51.694Z,21.10
2017-09-22T04:50:18.134Z,20.65
2017-09-22T04:52:44.538Z,19.40
2017-09-22T04:55:10.948Z,32.60
2017-09-22T04:57:38.144Z,25.42
2017-09-22T05:00:04.567Z,31.17
2017-09-22T05:02:31.016Z,31.30
2017-09-22T05:04:57.469Z,32.80
2017-09-22T05:07:24.481Z,16.50
2017-09-22T05:09:50.916Z,15.38
2017-09-22T05:12:17.366Z,13.90
2017-09-22T05:14:43.812Z,12.20
2017-09-22T05:17:10.312Z,11.55
2017-09-22T05:19:36.800Z,12.40
2017-09-22T05:22:03.257Z,12.25
2017-09-22T05:24:30.410Z,11.07
2017-09-22T05:26:57.574Z,14.07
2017-09-22T05:29:24.760Z,14.02
2017-09-22T05:31:51.221Z,12.70
2017-09-22T05:34:17.651Z,12.13
2017-09-22T05:36:44.053Z,13.90
2017-09-22T05:39:10.498Z,18.25
2017-09-22T05:41:36.943Z,13.38
2017-09-22T05:44:04.202Z,14.35
2017-09-22T05:46:30.637Z,13.30
2017-09-22T05:48:57.093Z,13.50
2017-09-22T05:51:24.273Z,13.62
2017-09-22T05:53:50.689Z,12.40
2017-09-22T05:56:17.141Z,12.63
2017-09-22T05:58:43.585Z,11.85
2017-09-22T06:01:10.004Z,12.10
2017-09-22T06:03:36.420Z,11.50
2017-09-22T06:06:02.937Z,11.65
2017-09-22T06:08:30.085Z,11.70
2017-09-22T06:10:57.245Z,11.32
2017-09-22T06:13:23.722Z,11.52
2017-09-22T06:15:50.161Z,10.80
2017-09-22T06:18:16.588Z,11.80
2017-09-22T06:20:43.028Z,12.40
2017-09-22T06:23:09.462Z,10.60
2017-09-22T06:25:35.917Z,10.77
2017-09-22T06:28:02.382Z,10.90
2017-09-22T06:30:28.813Z,11.10
2017-09-22T06:32:55.229Z,11.68
2017-09-22T06:35:22.456Z,11.00
2017-09-22T06:37:48.882Z,10.77
2017-09-22T06:40:16.129Z,9.90
2017-09-22T06:42:42.585Z,10.52
2017-09-22T06:45:09.021Z,10.10
2017-09-22T06:47:35.458Z,10.48
2017-09-22T06:50:01.902Z,10.32
2017-09-22T06:52:29.077Z,10.38
2017-09-22T06:54:55.538Z,10.88
2017-09-22T06:57:22.025Z,9.07
2017-09-22T06:59:49.216Z,8.88
2017-09-22T07:02:15.658Z,8.85
2017-09-22T07:04:42.081Z,8.60
2017-09-22T07:07:08.575Z,8.50
2017-09-22T07:09:35.073Z,9.18
2017-09-22T07:12:02.301Z,8.05
2017-09-22T07:14:28.763Z,8.70
2017-09-22T07:16:55.165Z,8.75
2017-09-22T07:19:21.566Z,8.52
2017-09-22T07:21:48.010Z,8.75
2017-09-22T07:24:14.457Z,8.38
2017-09-22T07:26:40.901Z,9.25
2017-09-22T07:29:07.344Z,10.32
2017-09-22T07:31:33.776Z,9.90
2017-09-22T07:34:00.268Z,12.68
2017-09-22T07:36:26.684Z,10.52
2017-09-22T07:38:53.157Z,12.48
2017-09-22T07:41:19.632Z,11.85
2017-09-22T07:43:46.067Z,15.48
2017-09-22T07:46:12.489Z,12.60
2017-09-22T07:48:38.929Z,12.35
2017-09-22T07:51:05.332Z,17.55
2017-09-22T07:53:31.772Z,11.15
2017-09-22T07:55:58.233Z,10.25
2017-09-22T07:58:24.641Z,10.35
2017-09-22T08:00:51.069Z,11.90
2017-09-22T08:03:17.507Z,12.25
2017-09-22T08:05:44.754Z,12.45
2017-09-22T08:08:11.227Z,11.18
2017-09-22T08:10:37.720Z,12.65
2017-09-22T08:13:04.141Z,10.57
2017-09-22T08:15:30.632Z,10.80
2017-09-22T08:17:57.822Z,11.95
2017-09-22T08:20:24.237Z,12.15
2017-09-22T08:22:50.654Z,10.65
2017-09-22T08:25:17.827Z,9.57
2017-09-22T08:27:44.264Z,9.25
2017-09-22T08:30:10.693Z,10.13
2017-09-22T08:32:37.124Z,8.65
2017-09-22T08:35:03.585Z,8.35
2017-09-22T08:37:30.068Z,8.52
2017-09-22T08:39:57.235Z,7.07
2017-09-22T08:42:23.678Z,7.12
2017-09-22T08:44:50.149Z,8.32
2017-09-22T08:47:16.597Z,7.50
2017-09-22T08:49:43.127Z,7.07
2017-09-22T08:52:09.552Z,7.28
2017-09-22T08:54:36.001Z,6.97
2017-09-22T08:57:02.424Z,5.85
2017-09-22T08:59:29.647Z,5.72
2017-09-22T09:01:56.079Z,4.95
2017-09-22T09:04:23.252Z,6.35
2017-09-22T09:06:49.709Z,5.68
2017-09-22T09:09:16.881Z,5.40
2017-09-22T09:11:43.374Z,4.80
2017-09-22T09:14:09.841Z,4.12
2017-09-22T09:16:37.000Z,3.35
2017-09-22T09:19:03.433Z,3.70
2017-09-22T09:21:29.914Z,4.20
2017-09-22T09:23:56.349Z,4.35
2017-09-22T09:26:22.802Z,3.53
2017-09-22T09:28:49.949Z,3.40
2017-09-22T09:31:16.367Z,4.12
2017-09-22T09:33:42.805Z,3.90
2017-09-22T09:36:09.275Z,3.70
2017-09-22T09:38:35.745Z,4.00
2017-09-22T09:41:02.174Z,3.97
2017-09-22T09:43:28.598Z,3.20
2017-09-22T09:45:55.061Z,3.47
2017-09-22T09:48:21.524Z,3.30
2017-09-22T09:50:47.938Z,3.22
2017-09-22T09:53:15.113Z,2.70
2017-09-22T09:55:41.582Z,3.42
2017-09-22T09:58:08.014Z,3.08
2017-09-22T10:00:34.526Z,3.10
2017-09-22T10:03:00.982Z,3.20
2017-09-22T10:05:27.450Z,3.25
2017-09-22T10:07:54.609Z,3.10
2017-09-22T10:10:21.850Z,3.05
2017-09-22T10:12:48.269Z,2.70
2017-09-22T10:15:14.719Z,2.97
2017-09-22T10:17:41.140Z,2.60
2017-09-22T10:20:07.594Z,2.30
2017-09-22T10:22:34.065Z,2.53
2017-09-22T10:25:00.469Z,3.25
2017-09-22T10:27:27.632Z,3.08
2017-09-22T10:29:54.111Z,2.95
2017-09-22T10:32:20.533Z,2.45
2017-09-22T10:34:47.007Z,3.15
2017-09-22T10:37:14.178Z,3.90
2017-09-22T10:39:40.618Z,3.60
2017-09-22T10:42:07.099Z,3.20
2017-09-22T10:44:33.533Z,3.20
2017-09-22T10:47:00.753Z,3.00
2017-09-22T10:49:27.217Z,3.20
2017-09-22T10:51:53.665Z,3.15
2017-09-22T10:54:20.832Z,3.30
2017-09-22T10:56:48.030Z,3.00
2017-09-22T10:59:14.486Z,2.80
2017-09-22T11:01:40.926Z,2.70
2017-09-22T11:04:07.364Z,2.80
2017-09-22T11:06:34.586Z,3.33
2017-09-22T11:09:01.045Z,3.70
2017-09-22T11:11:27.466Z,3.40
2017-09-22T11:13:53.928Z,3.00
2017-09-22T11:16:20.360Z,3.30
2017-09-22T11:18:47.526Z,4.15
2017-09-22T11:21:14.803Z,3.47
2017-09-22T11:23:41.256Z,3.53
2017-09-22T11:26:07.683Z,2.60
2017-09-22T11:28:34.106Z,2.87
2017-09-22T11:31:00.346Z,2.70
2017-09-22T11:33:26.762Z,2.67
2017-09-22T11:35:53.249Z,2.60
2017-09-22T11:38:19.757Z,2.45
2017-09-22T11:40:46.168Z,2.75
2017-09-22T11:43:12.569Z,2.37
2017-09-22T11:45:39.774Z,2.80
2017-09-22T11:48:06.181Z,3.00
2017-09-22T11:50:32.582Z,2.80
2017-09-22T11:52:59.055Z,2.70
2017-09-22T11:55:25.492Z,2.95
2017-09-22T11:57:51.938Z,2.58
2017-09-22T12:00:18.462Z,3.20
2017-09-22T12:02:44.935Z,2.92
2017-09-22T12:05:12.141Z,3.10
2017-09-22T12:07:38.589Z,3.15
2017-09-22T12:10:05.048Z,3.20
2017-09-22T12:12:32.193Z,3.35
2017-09-22T12:14:59.403Z,2.85
2017-09-22T12:17:25.869Z,2.90
2017-09-22T12:19:52.330Z,2.83
2017-09-22T12:22:19.509Z,2.85
2017-09-22T12:24:45.928Z,3.03
2017-09-22T12:27:12.373Z,3.50
2017-09-22T12:29:38.788Z,2.90
2017-09-22T12:32:05.230Z,2.65
2017-09-22T12:34:31.673Z,2.95
2017-09-22T12:36:58.151Z,2.80
2017-09-22T12:39:24.599Z,2.80
2017-09-22T12:41:51.784Z,2.60
2017-09-22T12:44:18.257Z,2.80
2017-09-22T12:46:44.712Z,2.78
2017-09-22T12:49:11.897Z,2.97
2017-09-22T12:51:38.384Z,3.15
2017-09-22T12:54:04.818Z,2.87
2017-09-22T12:56:32.018Z,3.55
2017-09-22T12:58:58.447Z,2.40
2017-09-22T13:01:24.966Z,3.00
2017-09-22T13:03:51.481Z,2.62
2017-09-22T13:06:18.689Z,2.75
2017-09-22T13:08:45.202Z,2.70
2017-09-22T13:11:11.690Z,2.97
2017-09-22T13:13:38.926Z,2.75
2017-09-22T13:16:06.109Z,3.10
2017-09-22T13:18:33.318Z,3.00
2017-09-22T13:20:59.798Z,3.25
2017-09-22T13:23:27.017Z,2.90
2017-09-22T13:25:53.487Z,3.12
2017-09-22T13:28:19.947Z,2.72
2017-09-22T13:30:46.409Z,2.53
2017-09-22T13:33:12.911Z,2.75
2017-09-22T13:35:39.322Z,2.58
2017-09-22T13:38:06.529Z,3.20
2017-09-22T13:40:32.993Z,2.90
2017-09-22T13:42:59.476Z,3.25
2017-09-22T13:45:25.940Z,2.58
2017-09-22T13:47:52.434Z,2.90
2017-09-22T13:50:18.869Z,3.25
2017-09-22T13:52:45.297Z,3.30
2017-09-22T13:55:11.781Z,3.17
2017-09-22T13:57:38.217Z,3.30
2017-09-22T14:00:04.739Z,3.42
2017-09-22T14:02:31.965Z,3.45
2017-09-22T14:04:58.422Z,3.08
2017-09-22T14:07:25.604Z,3.03
2017-09-22T14:09:52.028Z,2.83
2017-09-22T14:12:19.234Z,2.90
2017-09-22T14:14:45.680Z,2.62
2017-09-22T14:17:12.109Z,2.42
2017-09-22T14:19:38.591Z,2.60
2017-09-22T14:22:05.002Z,2.60
2017-09-22T14:24:32.297Z,2.72
2017-09-22T14:26:58.725Z,2.40
2017-09-22T14:29:25.873Z,2.22
2017-09-22T14:31:53.073Z,2.67
2017-09-22T14:34:19.549Z,2.80
2017-09-22T14:36:46.023Z,3.35
2017-09-22T14:39:12.488Z,2.67
2017-09-22T14:41:38.905Z,2.30
2017-09-22T14:44:05.369Z,2.30
2017-09-22T14:46:31.822Z,2.28
2017-09-22T14:48:58.288Z,2.00
2017-09-22T14:51:24.782Z,2.12
2017-09-22T14:53:51.945Z,2.53
2017-09-22T14:56:18.378Z,1.90
2017-09-22T14:58:45.593Z,1.90
2017-09-22T15:01:12.785Z,2.05
2017-09-22T15:03:39.222Z,2.10
2017-09-22T15:06:05.630Z,7.40
2017-09-22T15:08:32.786Z,9.27
2017-09-22T15:10:59.243Z,2.90
2017-09-22T15:13:25.693Z,2.90
2017-09-22T15:15:52.141Z,2.12
2017-09-22T15:18:18.609Z,2.10
2017-09-22T15:20:45.112Z,2.30
2017-09-22T15:23:11.557Z,2.15
2017-09-22T15:25:38.793Z,2.45
2017-09-22T15:28:05.285Z,2.25
2017-09-22T15:30:31.738Z,2.47
2017-09-22T15:32:58.174Z,2.58
2017-09-22T15:35:24.637Z,2.35
2017-09-22T15:37:51.077Z,2.42
2017-09-22T15:40:17.518Z,2.55
2017-09-22T15:42:43.975Z,2.70
2017-09-22T15:45:10.414Z,3.15
2017-09-22T15:47:36.865Z,3.10
2017-09-22T15:50:03.349Z,3.00
2017-09-22T15:52:29.838Z,3.05
2017-09-22T15:54:56.246Z,2.80
2017-09-22T15:57:22.661Z,2.75
2017-09-22T15:59:49.878Z,2.75
2017-09-22T16:02:16.277Z,2.75
2017-09-22T16:04:42.754Z,2.90
2017-09-22T16:07:09.195Z,2.80
2017-09-22T16:09:35.649Z,3.10
2017-09-22T16:12:02.820Z,2.55
2017-09-22T16:14:29.237Z,6.00
2017-09-22T16:16:55.744Z,38.72
2017-09-22T16:19:22.961Z,7.55
2017-09-22T16:21:50.161Z,7.28
2017-09-22T16:24:16.625Z,5.30
2017-09-22T16:26:43.073Z,4.95
2017-09-22T16:29:09.546Z,3.90
2017-09-22T16:31:36.734Z,4.25
2017-09-22T16:34:03.282Z,3.22
2017-09-22T16:36:29.793Z,3.20
2017-09-22T16:38:56.219Z,3.15
2017-09-22T16:41:23.486Z,3.42
2017-09-22T16:43:49.920Z,3.15
2017-09-22T16:46:16.382Z,3.40
2017-09-22T16:48:42.815Z,3.78
2017-09-22T16:51:09.278Z,3.30
2017-09-22T16:53:35.749Z,3.60
2017-09-22T16:56:02.214Z,4.18
2017-09-22T16:58:28.660Z,4.45
2017-09-22T17:00:55.072Z,3.70
2017-09-22T17:03:21.511Z,3.85
2017-09-22T17:05:48.010Z,3.70
2017-09-22T17:08:14.499Z,4.10
2017-09-22T17:10:40.941Z,3.78
2017-09-22T17:13:08.294Z,5.30
2017-09-22T17:15:34.738Z,5.80
2017-09-22T17:18:01.196Z,7.70
2017-09-22T17:20:27.676Z,9.38
2017-09-22T17:22:54.150Z,7.70
2017-09-22T17:25:21.330Z,6.37
2017-09-22T17:27:47.790Z,6.35
2017-09-22T17:30:14.248Z,5.15
2017-09-22T17:32:40.776Z,7.75
2017-09-22T17:35:07.246Z,6.75
2017-09-22T17:37:34.401Z,5.70
2017-09-22T17:40:00.818Z,4.35
2017-09-22T17:42:27.319Z,4.00
2017-09-22T17:44:53.746Z,3.72
2017-09-22T17:47:20.205Z,3.90
2017-09-22T17:49:47.415Z,7.15
2017-09-22T17:52:13.860Z,6.43
2017-09-22T17:54:40.285Z,4.90
2017-09-22T17:57:06.729Z,5.47
2017-09-22T17:59:33.161Z,6.55
2017-09-22T18:01:59.642Z,6.20
2017-09-22T18:04:26.082Z,5.93
2017-09-22T18:06:53.268Z,6.15
2017-09-22T18:09:19.756Z,7.15
2017-09-22T18:11:46.238Z,5.95
2017-09-22T18:14:12.763Z,6.30
2017-09-22T18:16:39.286Z,6.35
2017-09-22T18:19:05.741Z,6.28
2017-09-22T18:21:32.265Z,4.95
2017-09-22T18:23:58.808Z,5.20
2017-09-22T18:26:25.237Z,5.07
2017-09-22T18:28:51.661Z,4.93
2017-09-22T18:31:18.158Z,6.32
2017-09-22T18:33:45.342Z,6.20
2017-09-22T18:36:11.813Z,6.20
2017-09-22T18:38:39.046Z,5.45
2017-09-22T18:41:05.496Z,6.05
2017-09-22T18:43:31.913Z,5.57
2017-09-22T18:45:58.421Z,5.90
2017-09-22T18:48:24.925Z,6.05
2017-09-22T18:50:51.394Z,5.40
2017-09-22T18:53:17.882Z,5.78
2017-09-22T18:55:45.066Z,5.62
2017-09-22T18:58:11.498Z,5.10
2017-09-22T19:00:38.020Z,5.25
2017-09-22T19:03:04.506Z,5.25
2017-09-22T19:05:30.984Z,4.65
2017-09-22T19:07:57.416Z,5.70
2017-09-22T19:10:24.637Z,4.90
2017-09-22T19:12:51.858Z,5.90
2017-09-22T19:15:18.382Z,5.45
2017-09-22T19:17:44.817Z,5.55
2017-09-22T19:20:11.372Z,5.20
2017-09-22T19:22:37.874Z,5.53
2017-09-22T19:25:04.372Z,6.35
2017-09-22T19:27:31.551Z,6.28
2017-09-22T19:29:58.034Z,6.25
2017-09-22T19:32:24.469Z,5.60
2017-09-22T19:34:50.963Z,5.47
2017-09-22T19:37:17.446Z,6.03
2017-09-22T19:39:43.887Z,5.75
2017-09-22T19:42:11.117Z,6.30
2017-09-22T19:44:38.351Z,5.78
2017-09-22T19:47:05.536Z,6.53
2017-09-22T19:49:32.000Z,6.90
2017-09-22T19:51:58.428Z,11.90
2017-09-22T19:54:24.899Z,13.62
2017-09-22T19:56:51.421Z,12.82
2017-09-22T19:59:17.857Z,9.40
2017-09-22T20:01:44.405Z,12.10
2017-09-22T20:04:10.877Z,10.70
2017-09-22T20:06:37.426Z,11.30
2017-09-22T20:09:03.907Z,10.23
2017-09-22T20:11:30.366Z,9.50
2017-09-22T20:13:56.854Z,10.98
2017-09-22T20:16:23.322Z,8.60
2017-09-22T20:18:50.592Z,9.02
2017-09-22T20:21:17.901Z,8.10
2017-09-22T20:23:44.394Z,8.10
2017-09-22T20:26:11.638Z,7.95
2017-09-22T20:28:38.865Z,6.62
2017-09-22T20:31:06.027Z,7.65
2017-09-22T20:33:32.515Z,7.00
2017-09-22T20:35:58.982Z,6.70
2017-09-22T20:38:25.464Z,6.70
2017-09-22T20:40:51.897Z,6.82
2017-09-22T20:43:18.321Z,6.18
2017-09-22T20:45:44.772Z,6.50
2017-09-22T20:48:11.237Z,6.70
2017-09-22T20:50:38.398Z,6.80
2017-09-22T20:53:04.842Z,7.00
2017-09-22T20:55:31.290Z,6.50
2017-09-22T20:57:58.534Z,6.62
2017-09-22T21:00:25.037Z,6.80
2017-09-22T21:02:52.241Z,6.25
2017-09-22T21:05:18.729Z,6.00
2017-09-22T21:07:45.181Z,6.43
2017-09-22T21:10:11.630Z,6.95
2017-09-22T21:12:38.816Z,8.05
2017-09-22T21:15:05.265Z,7.05
2017-09-22T21:17:31.738Z,6.57
2017-09-22T21:19:58.978Z,7.30
2017-09-22T21:22:25.417Z,6.75
2017-09-22T21:24:51.874Z,6.85
2017-09-22T21:27:18.313Z,6.87
2017-09-22T21:29:45.483Z,6.95
2017-09-22T21:32:11.978Z,6.15
2017-09-22T21:34:38.498Z,6.20
2017-09-22T21:37:05.013Z,6.80
2017-09-22T21:39:31.462Z,6.97
2017-09-22T21:41:57.901Z,6.05
2017-09-22T21:44:24.353Z,5.93
2017-09-22T21:46:51.510Z,6.57
2017-09-22T21:49:18.665Z,6.43
2017-09-22T21:51:45.182Z,7.15
2017-09-22T21:54:11.618Z,6.95
2017-09-22T21:56:38.840Z,6.93
2017-09-22T21:59:05.333Z,6.35
2017-09-22T22:01:31.805Z,6.47
2017-09-22T22:04:04.441Z,7.12
2017-09-22T22:06:37.132Z,6.70
2017-09-22T22:09:03.788Z,6.40
2017-09-22T22:11:30.261Z,6.95
2017-09-22T22:13:56.762Z,7.60
2017-09-22T22:16:23.272Z,5.95
2017-09-22T22:18:49.789Z,6.30
2017-09-22T22:21:16.301Z,6.60
2017-09-22T22:23:42.809Z,6.90
2017-09-22T22:26:09.308Z,7.15
2017-09-22T22:28:35.774Z,7.85
2017-09-22T22:31:03.063Z,7.70
2017-09-22T22:33:29.541Z,7.20
2017-09-22T22:35:56.063Z,6.72
2017-09-22T22:38:22.584Z,6.90
2017-09-22T22:40:49.120Z,6.85
2017-09-22T22:43:15.677Z,6.65
2017-09-22T22:45:42.138Z,7.00
2017-09-22T22:48:08.602Z,6.80
2017-09-22T22:50:35.149Z,6.53
2017-09-22T22:53:01.616Z,6.32
2017-09-22T22:55:28.131Z,6.45
2017-09-22T22:57:54.655Z,6.60
2017-09-22T23:00:21.186Z,6.85
2017-09-22T23:02:47.712Z,6.45
2017-09-22T23:05:14.226Z,6.43
2017-09-22T23:07:41.445Z,6.25
2017-09-22T23:10:08.666Z,6.68
2017-09-22T23:12:35.165Z,6.57
2017-09-22T23:15:01.664Z,7.15
2017-09-22T23:17:28.137Z,6.50
2017-09-22T23:19:54.675Z,6.85
2017-09-22T23:22:21.865Z,6.90
2017-09-22T23:24:48.396Z,7.12
2017-09-22T23:27:14.985Z,6.65
2017-09-22T23:29:41.532Z,8.35
2017-09-22T23:32:08.043Z,6.40
2017-09-22T23:34:34.497Z,6.95
2017-09-22T23:37:01.744Z,6.30
2017-09-22T23:39:28.957Z,6.03
2017-09-22T23:41:55.419Z,7.85
2017-09-22T23:44:22.661Z,6.95
2017-09-22T23:46:49.225Z,6.75
2017-09-22T23:49:16.433Z,7.70
2017-09-22T23:51:42.890Z,7.37
2017-09-22T23:54:10.141Z,7.25
2017-09-22T23:56:36.604Z,6.70
2017-09-22T23:59:03.052Z,8.52
